createdAt,value
2023-03-12T00:00:11.468Z,74.16
2023-03-12T00:05:17.103Z,74.60
2023-03-12T00:10:22.704Z,74.07
2023-03-12T00:15:28.548Z,74.66
2023-03-12T00:20:34.192Z,74.71
2023-03-12T00:25:39.721Z,74.80
2023-03-12T00:30:45.247Z,74.82
2023-03-12T00:35:51.021Z,74.77
2023-03-12T00:40:57.929Z,74.54
2023-03-12T00:46:03.719Z,74.70
2023-03-12T00:51:09.695Z,74.99
2023-03-12T00:56:15.607Z,74.66
2023-03-12T01:01:21.105Z,74.91
2023-03-12T01:06:28.380Z,74.98
2023-03-12T01:11:34.766Z,74.71
2023-03-12T01:16:40.338Z,74.74
2023-03-12T01:21:46.031Z,74.80
2023-03-12T01:26:51.633Z,74.84
2023-03-12T01:31:57.164Z,74.39
2023-03-12T01:37:02.888Z,74.71
2023-03-12T01:42:09.010Z,75.35
2023-03-12T01:47:14.489Z,77.57
2023-03-12T01:52:32.559Z,77.90
2023-03-12T01:57:50.695Z,77.18
2023-03-12T02:03:01.045Z,77.02
2023-03-12T02:08:08.448Z,76.09
2023-03-12T02:13:14.264Z,75.84
2023-03-12T02:18:22.249Z,73.75
2023-03-12T02:23:30.917Z,73.17
2023-03-12T02:28:40.342Z,72.44
2023-03-12T02:33:46.797Z,72.46
2023-03-12T02:38:54.288Z,72.10
2023-03-12T02:44:20.529Z,72.11
2023-03-12T02:49:30.831Z,72.20
2023-03-12T02:54:37.222Z,72.51
2023-03-12T03:00:00.944Z,72.82
2023-03-12T03:05:25.746Z,73.43
2023-03-12T03:10:52.803Z,73.90
2023-03-12T03:16:16.246Z,74.36
2023-03-12T03:21:39.963Z,74.56
2023-03-12T03:27:03.067Z,74.86
2023-03-12T03:32:26.917Z,75.02
2023-03-12T03:37:50.100Z,75.51
2023-03-12T03:43:13.826Z,75.86
2023-03-12T03:48:37.422Z,76.10
2023-03-12T03:54:01.824Z,76.27
2023-03-12T03:59:25.602Z,76.53
2023-03-12T04:04:49.559Z,76.33
2023-03-12T04:10:14.658Z,76.47
2023-03-12T04:15:38.410Z,76.63
2023-03-12T04:21:02.133Z,76.51
2023-03-12T04:26:25.654Z,76.67
2023-03-12T04:31:49.831Z,76.48
2023-03-12T04:37:16.564Z,76.59
2023-03-12T04:42:40.285Z,76.61
2023-03-12T04:48:04.584Z,76.56
2023-03-12T04:53:28.537Z,76.66
2023-03-12T04:58:53.203Z,76.62
2023-03-12T05:04:17.217Z,76.78
2023-03-12T05:09:40.647Z,76.64
2023-03-12T05:15:04.735Z,76.57
2023-03-12T05:20:28.133Z,76.64
2023-03-12T05:25:51.813Z,76.41
2023-03-12T05:31:16.169Z,76.34
2023-03-12T05:36:40.397Z,76.49
2023-03-12T05:42:03.913Z,76.73
2023-03-12T05:47:27.857Z,76.86
2023-03-12T05:52:52.330Z,76.88
2023-03-12T05:58:16.328Z,76.78
2023-03-12T06:03:40.472Z,77.10
2023-03-12T06:09:06.014Z,76.92
2023-03-12T06:14:29.366Z,77.01
2023-03-12T06:19:54.080Z,76.60
2023-03-12T06:25:17.733Z,76.30
2023-03-12T06:30:41.033Z,75.81
2023-03-12T06:36:07.115Z,76.11
2023-03-12T06:41:30.731Z,75.80
2023-03-12T06:46:54.041Z,75.71
2023-03-12T06:52:18.703Z,75.39
2023-03-12T06:57:42.175Z,74.96
2023-03-12T07:03:06.068Z,75.23
2023-03-12T07:08:31.347Z,74.39
2023-03-12T07:13:54.928Z,74.77
2023-03-12T07:19:19.622Z,73.59
2023-03-12T07:24:43.156Z,73.59
2023-03-12T07:30:07.362Z,74.58
2023-03-12T07:35:31.698Z,72.35
2023-03-12T07:40:57.153Z,72.55
2023-03-12T07:46:20.816Z,72.71
2023-03-12T07:51:44.314Z,71.25
2023-03-12T07:57:08.006Z,71.75
2023-03-12T08:02:31.877Z,71.15
2023-03-12T08:07:56.289Z,70.45
2023-03-12T08:13:19.512Z,70.55
2023-03-12T08:18:44.004Z,69.85
2023-03-12T08:24:07.883Z,69.73
2023-03-12T08:29:32.906Z,69.54
2023-03-12T08:34:56.195Z,68.83
2023-03-12T08:40:19.953Z,68.25
2023-03-12T08:45:43.474Z,68.47
2023-03-12T08:51:07.691Z,67.82
2023-03-12T08:56:31.211Z,68.62
2023-03-12T09:01:54.618Z,65.96
2023-03-12T09:07:22.299Z,66.79
2023-03-12T09:12:45.473Z,67.03
2023-03-12T09:18:08.646Z,66.87
2023-03-12T09:23:32.470Z,65.34
2023-03-12T09:28:58.026Z,65.00
2023-03-12T09:34:21.162Z,63.35
2023-03-12T09:39:44.526Z,63.54
2023-03-12T09:45:10.584Z,62.80
2023-03-12T09:50:43.829Z,63.25
2023-03-12T09:56:10.305Z,62.08
2023-03-12T10:01:54.842Z,62.25
2023-03-12T10:07:11.736Z,60.29
2023-03-12T10:12:35.540Z,59.77
2023-03-12T10:17:46.857Z,60.50
2023-03-12T10:23:07.817Z,59.39
2023-03-12T10:28:25.367Z,60.67
2023-03-12T10:33:34.279Z,58.53
2023-03-12T10:38:40.149Z,58.44
2023-03-12T10:43:46.193Z,57.75
2023-03-12T10:48:51.709Z,58.08
2023-03-12T10:53:57.332Z,57.25
2023-03-12T10:59:02.733Z,56.19
2023-03-12T11:04:17.050Z,56.45
2023-03-12T11:09:22.609Z,54.80
2023-03-12T11:14:30.919Z,54.81
2023-03-12T11:19:37.321Z,55.84
2023-03-12T11:25:01.114Z,54.04
2023-03-12T11:30:10.009Z,54.76
2023-03-12T11:35:20.101Z,53.55
2023-03-12T11:40:37.674Z,53.22
2023-03-12T11:45:49.166Z,54.37
2023-03-12T11:51:09.768Z,52.31
2023-03-12T11:56:30.556Z,51.18
2023-03-12T12:01:45.196Z,51.78
2023-03-12T12:07:08.743Z,51.76
2023-03-12T12:12:19.988Z,50.24
2023-03-12T12:17:53.781Z,49.54
2023-03-12T12:23:14.354Z,49.07
2023-03-12T12:28:39.466Z,49.86
2023-03-12T12:34:04.275Z,50.01
2023-03-12T12:39:21.853Z,49.05
2023-03-12T12:44:30.314Z,49.03
2023-03-12T12:49:38.834Z,49.59
2023-03-12T12:54:59.317Z,49.34
2023-03-12T13:00:13.981Z,49.19
2023-03-12T13:05:22.418Z,48.21
2023-03-12T13:10:52.923Z,48.10
2023-03-12T13:15:50.599Z,47.32
2023-03-12T13:21:01.951Z,48.66
2023-03-12T13:26:28.932Z,47.67
2023-03-12T13:31:38.262Z,47.46
2023-03-12T13:36:46.387Z,49.00
2023-03-12T13:41:53.989Z,48.12
2023-03-12T13:47:21.919Z,48.14
2023-03-12T13:52:36.134Z,48.54
2023-03-12T13:57:45.137Z,46.30
2023-03-12T14:03:02.787Z,46.79
2023-03-12T14:08:13.832Z,46.68
2023-03-12T14:13:27.858Z,46.37
2023-03-12T14:18:36.388Z,46.72
2023-03-12T14:23:57.068Z,47.64
2023-03-12T14:29:22.444Z,47.32
2023-03-12T14:34:30.817Z,47.78
2023-03-12T14:39:57.455Z,48.32
2023-03-12T14:45:21.482Z,48.36
2023-03-12T14:50:34.133Z,48.46
2023-03-12T14:55:39.691Z,48.52
2023-03-12T15:00:48.234Z,48.72
2023-03-12T15:05:54.353Z,48.52
2023-03-12T15:11:00.593Z,49.16
2023-03-12T15:16:08.029Z,49.28
2023-03-12T15:21:13.947Z,48.68
2023-03-12T15:26:25.148Z,49.33
2023-03-12T15:31:39.414Z,49.20
2023-03-12T15:36:51.833Z,49.59
2023-03-12T15:41:59.737Z,49.63
2023-03-12T15:47:14.389Z,49.50
2023-03-12T15:52:22.906Z,49.81
2023-03-12T15:57:28.977Z,49.76
2023-03-12T16:02:40.348Z,50.22
2023-03-12T16:07:46.218Z,50.14
2023-03-12T16:12:53.991Z,50.10
2023-03-12T16:18:01.387Z,50.73
2023-03-12T16:23:07.420Z,50.50
2023-03-12T16:28:16.188Z,50.81
2023-03-12T16:33:24.579Z,51.04
2023-03-12T16:38:29.979Z,51.23
2023-03-12T16:43:37.998Z,50.98
2023-03-12T16:48:43.630Z,51.16
2023-03-12T16:54:02.020Z,52.21
2023-03-12T16:58:57.453Z,52.60
2023-03-12T17:04:04.566Z,53.28
2023-03-12T17:09:10.236Z,53.86
2023-03-12T17:14:22.304Z,53.78
2023-03-12T17:19:28.316Z,54.28
2023-03-12T17:24:34.228Z,54.61
2023-03-12T17:29:39.684Z,55.22
2023-03-12T17:34:45.155Z,55.20
2023-03-12T17:39:50.876Z,54.82
2023-03-12T17:44:56.253Z,55.15
2023-03-12T17:50:01.718Z,55.04
2023-03-12T17:55:11.378Z,55.30
2023-03-12T18:00:18.174Z,55.08
2023-03-12T18:05:23.790Z,55.35
2023-03-12T18:10:29.266Z,55.11
2023-03-12T18:15:34.869Z,54.97
2023-03-12T18:20:40.533Z,55.09
2023-03-12T18:25:46.663Z,55.20
2023-03-12T18:30:52.536Z,55.01
2023-03-12T18:35:58.580Z,55.16
2023-03-12T18:41:06.152Z,54.94
2023-03-12T18:46:13.224Z,54.88
2023-03-12T18:51:18.822Z,55.01
2023-03-12T18:56:24.345Z,54.91
2023-03-12T19:01:29.975Z,54.43
2023-03-12T19:06:49.807Z,54.75
2023-03-12T19:11:42.536Z,54.71
2023-03-12T19:16:48.378Z,54.99
2023-03-12T19:21:53.862Z,55.32
2023-03-12T19:26:59.617Z,55.89
2023-03-12T19:32:05.414Z,56.25
2023-03-12T19:37:11.172Z,57.00
2023-03-12T19:42:16.559Z,57.10
2023-03-12T19:47:22.561Z,57.36
2023-03-12T19:52:28.150Z,57.93
2023-03-12T19:57:34.684Z,58.09
2023-03-12T20:02:40.975Z,58.65
2023-03-12T20:07:48.308Z,58.69
2023-03-12T20:12:53.706Z,59.17
2023-03-12T20:17:59.626Z,59.57
2023-03-12T20:23:05.172Z,59.76
2023-03-12T20:28:11.885Z,60.18
2023-03-12T20:33:17.622Z,60.51
2023-03-12T20:38:23.064Z,60.93
2023-03-12T20:43:28.674Z,61.39
2023-03-12T20:48:35.211Z,61.86
2023-03-12T20:53:40.702Z,62.20
2023-03-12T20:58:46.179Z,62.62
2023-03-12T21:03:52.029Z,63.00
2023-03-12T21:08:58.216Z,63.82
2023-03-12T21:14:03.691Z,63.82
2023-03-12T21:19:09.174Z,64.46
2023-03-12T21:24:14.960Z,65.08
2023-03-12T21:29:20.401Z,65.08
2023-03-12T21:34:25.989Z,65.42
2023-03-12T21:39:31.489Z,65.71
2023-03-12T21:44:38.239Z,66.10
2023-03-12T21:49:44.901Z,66.60
2023-03-12T21:54:50.450Z,66.79
2023-03-12T21:59:59.646Z,67.02
2023-03-12T22:05:05.915Z,67.50
2023-03-12T22:10:12.503Z,67.85
2023-03-12T22:15:17.945Z,68.15
2023-03-12T22:20:23.580Z,68.61
2023-03-12T22:25:29.101Z,68.96
2023-03-12T22:30:36.919Z,69.24
2023-03-12T22:35:49.855Z,69.82
2023-03-12T22:40:55.969Z,70.29
2023-03-12T22:46:01.588Z,70.71
2023-03-12T22:51:07.705Z,70.83
2023-03-12T22:56:14.712Z,70.94
2023-03-12T23:01:23.054Z,72.11
2023-03-12T23:06:30.220Z,72.37
2023-03-12T23:11:36.017Z,72.37
2023-03-12T23:16:41.598Z,73.36
2023-03-12T23:21:47.125Z,73.57
2023-03-12T23:26:54.303Z,73.74
2023-03-12T23:32:01.675Z,74.12
2023-03-12T23:37:07.307Z,74.52
2023-03-12T23:42:12.821Z,74.98
2023-03-12T23:47:18.273Z,75.54
2023-03-12T23:52:25.235Z,76.19
2023-03-12T23:57:31.212Z,76.92
